sensor_id;sensor_type;location;lat;lon;timestamp;temperature;humidity
9057;DHT22;4563;54.756;9.400;2023-09-30T00:00:02;16.50;75.00
9057;DHT22;4563;54.756;9.400;2023-09-30T00:02:35;16.40;75.00
9057;DHT22;4563;54.756;9.400;2023-09-30T00:05:02;16.40;75.00
9057;DHT22;4563;54.756;9.400;2023-09-30T00:07:29;16.40;75.10
9057;DHT22;4563;54.756;9.400;2023-09-30T00:09:56;16.40;75.10
9057;DHT22;4563;54.756;9.400;2023-09-30T00:12:23;16.40;75.20
9057;DHT22;4563;54.756;9.400;2023-09-30T00:14:50;16.30;75.10
9057;DHT22;4563;54.756;9.400;2023-09-30T00:17:17;16.40;75.20
9057;DHT22;4563;54.756;9.400;2023-09-30T00:19:48;16.30;75.10
9057;DHT22;4563;54.756;9.400;2023-09-30T00:22:14;16.40;75.20
9057;DHT22;4563;54.756;9.400;2023-09-30T00:24:41;16.30;75.10
9057;DHT22;4563;54.756;9.400;2023-09-30T00:27:08;16.30;75.10
9057;DHT22;4563;54.756;9.400;2023-09-30T00:29:35;16.30;75.00
9057;DHT22;4563;54.756;9.400;2023-09-30T00:32:02;16.30;75.00
9057;DHT22;4563;54.756;9.400;2023-09-30T00:34:32;16.30;75.00
9057;DHT22;4563;54.756;9.400;2023-09-30T00:37:00;16.20;75.00
9057;DHT22;4563;54.756;9.400;2023-09-30T00:39:27;16.20;75.00
9057;DHT22;4563;54.756;9.400;2023-09-30T00:41:56;16.20;75.00
9057;DHT22;4563;54.756;9.400;2023-09-30T00:44:24;16.20;75.10
9057;DHT22;4563;54.756;9.400;2023-09-30T00:46:50;16.20;75.10
9057;DHT22;4563;54.756;9.400;2023-09-30T00:49:17;16.20;75.10
9057;DHT22;4563;54.756;9.400;2023-09-30T00:51:44;16.20;75.10
9057;DHT22;4563;54.756;9.400;2023-09-30T00:54:13;16.20;75.10
9057;DHT22;4563;54.756;9.400;2023-09-30T00:56:44;16.20;75.20
9057;DHT22;4563;54.756;9.400;2023-09-30T00:59:12;16.20;75.10
9057;DHT22;4563;54.756;9.400;2023-09-30T01:01:40;16.20;75.10
9057;DHT22;4563;54.756;9.400;2023-09-30T01:04:07;16.10;75.10
9057;DHT22;4563;54.756;9.400;2023-09-30T01:06:34;16.10;75.10
9057;DHT22;4563;54.756;9.400;2023-09-30T01:09:00;16.10;75.20
9057;DHT22;4563;54.756;9.400;2023-09-30T01:11:29;16.10;75.20
9057;DHT22;4563;54.756;9.400;2023-09-30T01:13:56;16.10;75.30
9057;DHT22;4563;54.756;9.400;2023-09-30T01:16:23;16.10;75.30
9057;DHT22;4563;54.756;9.400;2023-09-30T01:18:50;16.10;75.30
9057;DHT22;4563;54.756;9.400;2023-09-30T01:21:18;16.10;75.30
9057;DHT22;4563;54.756;9.400;2023-09-30T01:23:46;16.10;75.30
9057;DHT22;4563;54.756;9.400;2023-09-30T01:26:13;16.00;75.20
9057;DHT22;4563;54.756;9.400;2023-09-30T01:28:41;16.00;75.30
9057;DHT22;4563;54.756;9.400;2023-09-30T01:31:08;16.00;75.30
9057;DHT22;4563;54.756;9.400;2023-09-30T01:33:34;16.00;75.30
9057;DHT22;4563;54.756;9.400;2023-09-30T01:36:01;16.00;75.30
9057;DHT22;4563;54.756;9.400;2023-09-30T01:38:28;16.00;75.30
9057;DHT22;4563;54.756;9.400;2023-09-30T01:40:56;16.00;75.40
9057;DHT22;4563;54.756;9.400;2023-09-30T01:43:23;16.00;75.40
9057;DHT22;4563;54.756;9.400;2023-09-30T01:45:50;16.00;75.30
9057;DHT22;4563;54.756;9.400;2023-09-30T01:48:17;16.00;75.40
9057;DHT22;4563;54.756;9.400;2023-09-30T01:50:45;16.00;76.20
9057;DHT22;4563;54.756;9.400;2023-09-30T01:53:13;16.00;75.60
9057;DHT22;4563;54.756;9.400;2023-09-30T01:55:40;16.00;75.60
9057;DHT22;4563;54.756;9.400;2023-09-30T01:58:08;16.00;75.70
9057;DHT22;4563;54.756;9.400;2023-09-30T02:00:36;16.00;75.80
9057;DHT22;4563;54.756;9.400;2023-09-30T02:03:03;15.90;75.80
9057;DHT22;4563;54.756;9.400;2023-09-30T02:05:30;15.90;75.80
9057;DHT22;4563;54.756;9.400;2023-09-30T02:07:57;15.90;75.90
9057;DHT22;4563;54.756;9.400;2023-09-30T02:10:24;15.90;75.90
9057;DHT22;4563;54.756;9.400;2023-09-30T02:12:50;15.90;76.70
9057;DHT22;4563;54.756;9.400;2023-09-30T02:15:19;15.90;76.10
9057;DHT22;4563;54.756;9.400;2023-09-30T02:17:46;15.90;76.10
9057;DHT22;4563;54.756;9.400;2023-09-30T02:20:14;15.90;76.10
9057;DHT22;4563;54.756;9.400;2023-09-30T02:22:45;15.90;76.80
9057;DHT22;4563;54.756;9.400;2023-09-30T02:25:12;15.90;76.10
9057;DHT22;4563;54.756;9.400;2023-09-30T02:27:39;16.00;76.20
9057;DHT22;4563;54.756;9.400;2023-09-30T02:30:08;15.90;76.00
9057;DHT22;4563;54.756;9.400;2023-09-30T02:32:37;16.00;76.10
9057;DHT22;4563;54.756;9.400;2023-09-30T02:35:05;16.00;76.10
9057;DHT22;4563;54.756;9.400;2023-09-30T02:37:32;15.90;76.00
9057;DHT22;4563;54.756;9.400;2023-09-30T02:40:02;15.90;76.00
9057;DHT22;4563;54.756;9.400;2023-09-30T02:42:30;15.90;76.00
9057;DHT22;4563;54.756;9.400;2023-09-30T02:44:59;15.90;76.00
9057;DHT22;4563;54.756;9.400;2023-09-30T02:47:26;15.90;76.00
9057;DHT22;4563;54.756;9.400;2023-09-30T02:49:56;15.90;76.00
9057;DHT22;4563;54.756;9.400;2023-09-30T02:52:23;15.90;76.00
9057;DHT22;4563;54.756;9.400;2023-09-30T02:54:49;15.90;76.00
9057;DHT22;4563;54.756;9.400;2023-09-30T02:57:17;15.90;76.00
9057;DHT22;4563;54.756;9.400;2023-09-30T02:59:44;15.90;76.10
9057;DHT22;4563;54.756;9.400;2023-09-30T03:02:11;16.00;76.10
9057;DHT22;4563;54.756;9.400;2023-09-30T03:04:38;15.90;76.00
9057;DHT22;4563;54.756;9.400;2023-09-30T03:07:07;15.90;76.00
9057;DHT22;4563;54.756;9.400;2023-09-30T03:09:34;15.90;75.90
9057;DHT22;4563;54.756;9.400;2023-09-30T03:12:01;15.90;75.80
9057;DHT22;4563;54.756;9.400;2023-09-30T03:14:30;15.90;75.80
9057;DHT22;4563;54.756;9.400;2023-09-30T03:16:57;15.90;75.80
9057;DHT22;4563;54.756;9.400;2023-09-30T03:19:24;15.90;75.70
9057;DHT22;4563;54.756;9.400;2023-09-30T03:21:51;15.90;76.40
9057;DHT22;4563;54.756;9.400;2023-09-30T03:24:19;15.90;75.60
9057;DHT22;4563;54.756;9.400;2023-09-30T03:26:46;15.90;75.60
9057;DHT22;4563;54.756;9.400;2023-09-30T03:29:13;15.90;75.60
9057;DHT22;4563;54.756;9.400;2023-09-30T03:31:40;15.90;75.60
9057;DHT22;4563;54.756;9.400;2023-09-30T03:34:06;15.90;75.70
9057;DHT22;4563;54.756;9.400;2023-09-30T03:36:34;15.90;75.70
9057;DHT22;4563;54.756;9.400;2023-09-30T03:39:01;15.90;75.60
9057;DHT22;4563;54.756;9.400;2023-09-30T03:41:34;15.90;75.60
9057;DHT22;4563;54.756;9.400;2023-09-30T03:44:02;15.90;75.60
9057;DHT22;4563;54.756;9.400;2023-09-30T03:46:29;15.80;75.50
9057;DHT22;4563;54.756;9.400;2023-09-30T03:48:56;15.80;75.50
9057;DHT22;4563;54.756;9.400;2023-09-30T03:51:24;15.80;75.40
9057;DHT22;4563;54.756;9.400;2023-09-30T03:53:51;15.80;75.40
9057;DHT22;4563;54.756;9.400;2023-09-30T03:56:18;15.80;75.40
9057;DHT22;4563;54.756;9.400;2023-09-30T03:58:49;15.80;75.40
9057;DHT22;4563;54.756;9.400;2023-09-30T04:01:15;15.70;75.40
9057;DHT22;4563;54.756;9.400;2023-09-30T04:03:45;15.70;75.40
9057;DHT22;4563;54.756;9.400;2023-09-30T04:06:12;15.70;75.40
9057;DHT22;4563;54.756;9.400;2023-09-30T04:08:39;15.70;75.50
9057;DHT22;4563;54.756;9.400;2023-09-30T04:11:08;15.70;75.50
9057;DHT22;4563;54.756;9.400;2023-09-30T04:13:36;15.70;75.60
9057;DHT22;4563;54.756;9.400;2023-09-30T04:16:04;15.70;75.60
9057;DHT22;4563;54.756;9.400;2023-09-30T04:18:31;15.60;75.50
9057;DHT22;4563;54.756;9.400;2023-09-30T04:20:57;15.60;75.50
9057;DHT22;4563;54.756;9.400;2023-09-30T04:23:25;15.60;75.50
9057;DHT22;4563;54.756;9.400;2023-09-30T04:25:53;15.60;75.50
9057;DHT22;4563;54.756;9.400;2023-09-30T04:28:20;15.60;75.60
9057;DHT22;4563;54.756;9.400;2023-09-30T04:30:47;15.60;75.60
9057;DHT22;4563;54.756;9.400;2023-09-30T04:33:16;15.60;75.70
9057;DHT22;4563;54.756;9.400;2023-09-30T04:35:43;15.60;75.60
9057;DHT22;4563;54.756;9.400;2023-09-30T04:38:11;15.60;75.60
9057;DHT22;4563;54.756;9.400;2023-09-30T04:40:38;15.60;75.70
9057;DHT22;4563;54.756;9.400;2023-09-30T04:43:05;15.60;75.60
9057;DHT22;4563;54.756;9.400;2023-09-30T04:45:32;15.60;75.70
9057;DHT22;4563;54.756;9.400;2023-09-30T04:47:59;15.60;75.60
9057;DHT22;4563;54.756;9.400;2023-09-30T04:50:28;15.60;75.60
9057;DHT22;4563;54.756;9.400;2023-09-30T04:52:56;15.60;75.70
9057;DHT22;4563;54.756;9.400;2023-09-30T04:55:24;15.50;75.50
9057;DHT22;4563;54.756;9.400;2023-09-30T04:57:51;15.50;75.60
9057;DHT22;4563;54.756;9.400;2023-09-30T05:00:19;15.50;75.60
9057;DHT22;4563;54.756;9.400;2023-09-30T05:02:50;15.50;75.70
9057;DHT22;4563;54.756;9.400;2023-09-30T05:05:17;15.50;75.70
9057;DHT22;4563;54.756;9.400;2023-09-30T05:07:45;15.40;75.60
9057;DHT22;4563;54.756;9.400;2023-09-30T05:10:13;15.50;75.70
9057;DHT22;4563;54.756;9.400;2023-09-30T05:12:42;15.50;75.80
9057;DHT22;4563;54.756;9.400;2023-09-30T05:15:11;15.50;75.80
9057;DHT22;4563;54.756;9.400;2023-09-30T05:17:38;15.50;75.80
9057;DHT22;4563;54.756;9.400;2023-09-30T05:20:06;15.50;76.00
9057;DHT22;4563;54.756;9.400;2023-09-30T05:22:33;15.50;76.00
9057;DHT22;4563;54.756;9.400;2023-09-30T05:25:01;15.50;76.10
9057;DHT22;4563;54.756;9.400;2023-09-30T05:27:28;15.50;76.30
9057;DHT22;4563;54.756;9.400;2023-09-30T05:29:55;15.50;76.40
9057;DHT22;4563;54.756;9.400;2023-09-30T05:32:21;15.50;76.50
9057;DHT22;4563;54.756;9.400;2023-09-30T05:34:48;15.50;76.40
9057;DHT22;4563;54.756;9.400;2023-09-30T05:37:16;15.50;76.40
9057;DHT22;4563;54.756;9.400;2023-09-30T05:39:45;15.50;76.40
9057;DHT22;4563;54.756;9.400;2023-09-30T05:42:15;15.50;76.40
9057;DHT22;4563;54.756;9.400;2023-09-30T05:44:41;15.50;76.40
9057;DHT22;4563;54.756;9.400;2023-09-30T05:47:08;15.50;76.40
9057;DHT22;4563;54.756;9.400;2023-09-30T05:49:35;15.50;76.30
9057;DHT22;4563;54.756;9.400;2023-09-30T05:52:03;15.50;76.20
9057;DHT22;4563;54.756;9.400;2023-09-30T05:54:30;15.50;76.20
9057;DHT22;4563;54.756;9.400;2023-09-30T05:56:57;15.60;76.30
9057;DHT22;4563;54.756;9.400;2023-09-30T05:59:27;15.50;76.20
9057;DHT22;4563;54.756;9.400;2023-09-30T06:01:54;15.50;76.30
9057;DHT22;4563;54.756;9.400;2023-09-30T06:04:21;15.50;76.40
9057;DHT22;4563;54.756;9.400;2023-09-30T06:06:47;15.60;76.60
9057;DHT22;4563;54.756;9.400;2023-09-30T06:09:15;15.60;76.60
9057;DHT22;4563;54.756;9.400;2023-09-30T06:11:41;15.60;76.60
9057;DHT22;4563;54.756;9.400;2023-09-30T06:14:08;15.60;76.60
9057;DHT22;4563;54.756;9.400;2023-09-30T06:16:36;15.60;76.60
9057;DHT22;4563;54.756;9.400;2023-09-30T06:19:04;15.60;76.60
9057;DHT22;4563;54.756;9.400;2023-09-30T06:21:31;15.60;76.70
9057;DHT22;4563;54.756;9.400;2023-09-30T06:24:00;15.60;76.70
9057;DHT22;4563;54.756;9.400;2023-09-30T06:26:27;15.60;76.80
9057;DHT22;4563;54.756;9.400;2023-09-30T06:28:55;15.60;76.90
9057;DHT22;4563;54.756;9.400;2023-09-30T06:31:22;15.70;77.00
9057;DHT22;4563;54.756;9.400;2023-09-30T06:33:51;15.70;77.10
9057;DHT22;4563;54.756;9.400;2023-09-30T06:36:18;15.70;77.10
9057;DHT22;4563;54.756;9.400;2023-09-30T06:38:46;15.70;77.30
9057;DHT22;4563;54.756;9.400;2023-09-30T06:41:16;15.70;77.30
9057;DHT22;4563;54.756;9.400;2023-09-30T06:43:43;15.70;77.40
9057;DHT22;4563;54.756;9.400;2023-09-30T06:46:10;15.80;77.50
9057;DHT22;4563;54.756;9.400;2023-09-30T06:48:38;15.80;77.60
9057;DHT22;4563;54.756;9.400;2023-09-30T06:51:07;15.80;77.70
9057;DHT22;4563;54.756;9.400;2023-09-30T06:53:35;15.80;77.70
9057;DHT22;4563;54.756;9.400;2023-09-30T06:56:05;15.80;77.80
9057;DHT22;4563;54.756;9.400;2023-09-30T06:58:32;15.90;78.00
9057;DHT22;4563;54.756;9.400;2023-09-30T07:00:59;15.90;78.00
9057;DHT22;4563;54.756;9.400;2023-09-30T07:03:26;15.90;78.10
9057;DHT22;4563;54.756;9.400;2023-09-30T07:05:53;15.90;78.10
9057;DHT22;4563;54.756;9.400;2023-09-30T07:08:23;16.00;78.20
9057;DHT22;4563;54.756;9.400;2023-09-30T07:10:51;16.00;78.20
9057;DHT22;4563;54.756;9.400;2023-09-30T07:13:19;16.00;78.20
9057;DHT22;4563;54.756;9.400;2023-09-30T07:15:46;16.10;78.40
9057;DHT22;4563;54.756;9.400;2023-09-30T07:18:13;16.10;78.40
9057;DHT22;4563;54.756;9.400;2023-09-30T07:20:40;16.10;78.40
9057;DHT22;4563;54.756;9.400;2023-09-30T07:23:07;16.20;78.50
9057;DHT22;4563;54.756;9.400;2023-09-30T07:25:36;16.20;78.50
9057;DHT22;4563;54.756;9.400;2023-09-30T07:28:03;16.30;78.60
9057;DHT22;4563;54.756;9.400;2023-09-30T07:30:30;16.30;78.60
9057;DHT22;4563;54.756;9.400;2023-09-30T07:32:57;16.30;78.60
9057;DHT22;4563;54.756;9.400;2023-09-30T07:35:23;16.30;78.50
9057;DHT22;4563;54.756;9.400;2023-09-30T07:37:50;16.40;78.50
9057;DHT22;4563;54.756;9.400;2023-09-30T07:40:18;16.40;78.50
9057;DHT22;4563;54.756;9.400;2023-09-30T07:42:48;16.40;78.40
9057;DHT22;4563;54.756;9.400;2023-09-30T07:45:15;16.50;78.40
9057;DHT22;4563;54.756;9.400;2023-09-30T07:47:43;16.50;78.30
9057;DHT22;4563;54.756;9.400;2023-09-30T07:50:12;16.60;78.40
9057;DHT22;4563;54.756;9.400;2023-09-30T07:52:39;16.60;78.30
9057;DHT22;4563;54.756;9.400;2023-09-30T07:55:08;16.70;78.30
9057;DHT22;4563;54.756;9.400;2023-09-30T07:57:35;16.70;78.20
9057;DHT22;4563;54.756;9.400;2023-09-30T08:00:04;16.70;78.10
9057;DHT22;4563;54.756;9.400;2023-09-30T08:02:34;16.80;78.30
9057;DHT22;4563;54.756;9.400;2023-09-30T08:05:02;16.80;78.10
9057;DHT22;4563;54.756;9.400;2023-09-30T08:07:31;16.90;78.10
9057;DHT22;4563;54.756;9.400;2023-09-30T08:09:57;16.90;78.00
9057;DHT22;4563;54.756;9.400;2023-09-30T08:12:24;16.90;78.00
9057;DHT22;4563;54.756;9.400;2023-09-30T08:14:50;17.00;78.10
9057;DHT22;4563;54.756;9.400;2023-09-30T08:17:19;17.00;78.00
9057;DHT22;4563;54.756;9.400;2023-09-30T08:19:46;17.00;78.10
9057;DHT22;4563;54.756;9.400;2023-09-30T08:22:13;17.10;78.10
9057;DHT22;4563;54.756;9.400;2023-09-30T08:24:40;17.10;78.10
9057;DHT22;4563;54.756;9.400;2023-09-30T08:27:07;17.20;78.10
9057;DHT22;4563;54.756;9.400;2023-09-30T08:29:34;17.20;78.00
9057;DHT22;4563;54.756;9.400;2023-09-30T08:32:02;17.20;78.70
9057;DHT22;4563;54.756;9.400;2023-09-30T08:34:31;17.30;78.90
9057;DHT22;4563;54.756;9.400;2023-09-30T08:36:58;17.30;78.30
9057;DHT22;4563;54.756;9.400;2023-09-30T08:39:26;17.40;78.20
9057;DHT22;4563;54.756;9.400;2023-09-30T08:41:55;17.40;78.10
9057;DHT22;4563;54.756;9.400;2023-09-30T08:44:23;17.50;78.20
9057;DHT22;4563;54.756;9.400;2023-09-30T08:46:51;17.50;78.10
9057;DHT22;4563;54.756;9.400;2023-09-30T08:49:19;17.60;78.20
9057;DHT22;4563;54.756;9.400;2023-09-30T08:51:48;17.60;78.20
9057;DHT22;4563;54.756;9.400;2023-09-30T08:54:16;17.70;78.20
9057;DHT22;4563;54.756;9.400;2023-09-30T08:56:45;17.70;78.10
9057;DHT22;4563;54.756;9.400;2023-09-30T08:59:14;17.80;78.00
9057;DHT22;4563;54.756;9.400;2023-09-30T09:01:41;17.80;77.90
9057;DHT22;4563;54.756;9.400;2023-09-30T09:04:09;17.80;77.60
9057;DHT22;4563;54.756;9.400;2023-09-30T09:06:36;17.90;77.40
9057;DHT22;4563;54.756;9.400;2023-09-30T09:09:17;18.00;77.30
9057;DHT22;4563;54.756;9.400;2023-09-30T09:11:45;18.00;77.10
9057;DHT22;4563;54.756;9.400;2023-09-30T09:14:12;18.10;76.90
9057;DHT22;4563;54.756;9.400;2023-09-30T09:16:51;18.10;76.60
9057;DHT22;4563;54.756;9.400;2023-09-30T09:19:19;18.10;76.10
9057;DHT22;4563;54.756;9.400;2023-09-30T09:21:54;18.20;75.80
9057;DHT22;4563;54.756;9.400;2023-09-30T09:24:30;18.20;75.40
9057;DHT22;4563;54.756;9.400;2023-09-30T09:27:11;18.20;75.20
9057;DHT22;4563;54.756;9.400;2023-09-30T09:29:39;18.30;75.20
9057;DHT22;4563;54.756;9.400;2023-09-30T09:32:09;18.30;74.80
9057;DHT22;4563;54.756;9.400;2023-09-30T09:34:37;18.30;74.40
9057;DHT22;4563;54.756;9.400;2023-09-30T09:37:14;18.40;74.30
9057;DHT22;4563;54.756;9.400;2023-09-30T09:39:50;18.40;74.30
9057;DHT22;4563;54.756;9.400;2023-09-30T09:42:24;18.50;74.40
9057;DHT22;4563;54.756;9.400;2023-09-30T09:44:54;18.50;74.20
9057;DHT22;4563;54.756;9.400;2023-09-30T09:47:22;18.50;74.20
9057;DHT22;4563;54.756;9.400;2023-09-30T09:49:50;18.50;73.80
9057;DHT22;4563;54.756;9.400;2023-09-30T09:52:18;18.60;73.50
9057;DHT22;4563;54.756;9.400;2023-09-30T09:54:45;18.60;73.20
9057;DHT22;4563;54.756;9.400;2023-09-30T09:57:14;18.60;73.00
9057;DHT22;4563;54.756;9.400;2023-09-30T09:59:43;18.70;73.00
9057;DHT22;4563;54.756;9.400;2023-09-30T10:02:13;18.70;72.90
9057;DHT22;4563;54.756;9.400;2023-09-30T10:04:41;18.70;72.90
9057;DHT22;4563;54.756;9.400;2023-09-30T10:07:10;18.80;72.80
9057;DHT22;4563;54.756;9.400;2023-09-30T10:09:43;18.80;72.60
9057;DHT22;4563;54.756;9.400;2023-09-30T10:12:13;18.80;72.60
9057;DHT22;4563;54.756;9.400;2023-09-30T10:14:41;18.80;72.20
9057;DHT22;4563;54.756;9.400;2023-09-30T10:17:07;18.80;71.80
9057;DHT22;4563;54.756;9.400;2023-09-30T10:19:34;18.90;71.70
9057;DHT22;4563;54.756;9.400;2023-09-30T10:22:20;18.90;71.60
9057;DHT22;4563;54.756;9.400;2023-09-30T10:24:48;18.90;72.20
9057;DHT22;4563;54.756;9.400;2023-09-30T10:27:35;18.90;71.60
9057;DHT22;4563;54.756;9.400;2023-09-30T10:30:10;19.00;72.40
9057;DHT22;4563;54.756;9.400;2023-09-30T10:33:10;19.00;71.80
9057;DHT22;4563;54.756;9.400;2023-09-30T10:35:47;19.00;71.90
9057;DHT22;4563;54.756;9.400;2023-09-30T10:38:36;19.10;71.50
9057;DHT22;4563;54.756;9.400;2023-09-30T10:41:03;19.10;71.60
9057;DHT22;4563;54.756;9.400;2023-09-30T10:43:32;19.10;71.00
9057;DHT22;4563;54.756;9.400;2023-09-30T10:46:01;19.10;70.80
9057;DHT22;4563;54.756;9.400;2023-09-30T10:48:37;19.20;70.80
9057;DHT22;4563;54.756;9.400;2023-09-30T10:51:15;19.20;71.10
9057;DHT22;4563;54.756;9.400;2023-09-30T10:53:44;19.30;71.20
9057;DHT22;4563;54.756;9.400;2023-09-30T10:56:11;19.30;71.00
9057;DHT22;4563;54.756;9.400;2023-09-30T10:58:41;19.30;70.90
9057;DHT22;4563;54.756;9.400;2023-09-30T11:01:08;19.40;70.50
9057;DHT22;4563;54.756;9.400;2023-09-30T11:03:35;19.40;70.10
9057;DHT22;4563;54.756;9.400;2023-09-30T11:06:02;19.50;69.60
9057;DHT22;4563;54.756;9.400;2023-09-30T11:08:30;19.50;69.30
9057;DHT22;4563;54.756;9.400;2023-09-30T11:10:57;19.60;69.60
9057;DHT22;4563;54.756;9.400;2023-09-30T11:13:31;19.60;69.40
9057;DHT22;4563;54.756;9.400;2023-09-30T11:16:03;19.70;69.50
9057;DHT22;4563;54.756;9.400;2023-09-30T11:18:31;19.70;69.40
9057;DHT22;4563;54.756;9.400;2023-09-30T11:21:06;19.80;69.20
9057;DHT22;4563;54.756;9.400;2023-09-30T11:23:35;19.80;69.10
9057;DHT22;4563;54.756;9.400;2023-09-30T11:26:02;19.90;68.80
9057;DHT22;4563;54.756;9.400;2023-09-30T11:28:38;19.90;68.80
9057;DHT22;4563;54.756;9.400;2023-09-30T11:31:08;20.00;69.60
9057;DHT22;4563;54.756;9.400;2023-09-30T11:33:47;20.00;68.50
9057;DHT22;4563;54.756;9.400;2023-09-30T11:36:15;20.10;68.90
9057;DHT22;4563;54.756;9.400;2023-09-30T11:38:45;20.20;68.30
9057;DHT22;4563;54.756;9.400;2023-09-30T11:41:13;20.20;68.00
9057;DHT22;4563;54.756;9.400;2023-09-30T11:43:58;20.30;68.00
9057;DHT22;4563;54.756;9.400;2023-09-30T11:46:27;20.40;68.80
9057;DHT22;4563;54.756;9.400;2023-09-30T11:48:58;20.50;67.80
9057;DHT22;4563;54.756;9.400;2023-09-30T11:51:26;20.60;67.90
9057;DHT22;4563;54.756;9.400;2023-09-30T11:53:53;20.70;67.90
9057;DHT22;4563;54.756;9.400;2023-09-30T11:56:20;20.70;67.70
9057;DHT22;4563;54.756;9.400;2023-09-30T11:58:48;20.90;67.50
9057;DHT22;4563;54.756;9.400;2023-09-30T12:01:16;21.00;67.70
9057;DHT22;4563;54.756;9.400;2023-09-30T12:03:44;21.00;68.30
9057;DHT22;4563;54.756;9.400;2023-09-30T12:06:13;21.20;67.40
9057;DHT22;4563;54.756;9.400;2023-09-30T12:08:41;21.30;67.30
9057;DHT22;4563;54.756;9.400;2023-09-30T12:11:08;21.40;67.00
9057;DHT22;4563;54.756;9.400;2023-09-30T12:13:38;21.50;66.80
9057;DHT22;4563;54.756;9.400;2023-09-30T12:16:05;21.70;66.70
9057;DHT22;4563;54.756;9.400;2023-09-30T12:18:32;21.80;66.20
9057;DHT22;4563;54.756;9.400;2023-09-30T12:21:00;21.90;66.00
9057;DHT22;4563;54.756;9.400;2023-09-30T12:23:27;22.10;65.70
9057;DHT22;4563;54.756;9.400;2023-09-30T12:25:54;22.20;65.40
9057;DHT22;4563;54.756;9.400;2023-09-30T12:28:21;22.20;65.00
9057;DHT22;4563;54.756;9.400;2023-09-30T12:30:47;22.40;64.70
9057;DHT22;4563;54.756;9.400;2023-09-30T12:33:14;22.50;64.30
9057;DHT22;4563;54.756;9.400;2023-09-30T12:35:41;22.60;63.90
9057;DHT22;4563;54.756;9.400;2023-09-30T12:38:09;22.70;63.60
9057;DHT22;4563;54.756;9.400;2023-09-30T12:40:36;22.70;63.30
9057;DHT22;4563;54.756;9.400;2023-09-30T12:43:03;22.80;63.20
9057;DHT22;4563;54.756;9.400;2023-09-30T12:45:32;22.80;63.00
9057;DHT22;4563;54.756;9.400;2023-09-30T12:47:59;22.90;63.00
9057;DHT22;4563;54.756;9.400;2023-09-30T12:50:25;22.90;62.70
9057;DHT22;4563;54.756;9.400;2023-09-30T12:52:52;23.00;62.50
9057;DHT22;4563;54.756;9.400;2023-09-30T12:55:20;23.00;62.50
9057;DHT22;4563;54.756;9.400;2023-09-30T12:57:47;23.00;62.40
9057;DHT22;4563;54.756;9.400;2023-09-30T13:00:16;23.10;62.20
9057;DHT22;4563;54.756;9.400;2023-09-30T13:02:44;23.10;62.10
9057;DHT22;4563;54.756;9.400;2023-09-30T13:05:11;23.10;61.60
9057;DHT22;4563;54.756;9.400;2023-09-30T13:07:38;23.20;61.40
9057;DHT22;4563;54.756;9.400;2023-09-30T13:10:06;23.20;61.10
9057;DHT22;4563;54.756;9.400;2023-09-30T13:12:35;23.30;61.00
9057;DHT22;4563;54.756;9.400;2023-09-30T13:15:02;23.30;60.90
9057;DHT22;4563;54.756;9.400;2023-09-30T13:17:29;23.40;60.80
9057;DHT22;4563;54.756;9.400;2023-09-30T13:19:55;23.40;60.60
9057;DHT22;4563;54.756;9.400;2023-09-30T13:22:22;23.40;60.50
9057;DHT22;4563;54.756;9.400;2023-09-30T13:24:49;23.40;60.30
9057;DHT22;4563;54.756;9.400;2023-09-30T13:27:16;23.40;60.10
9057;DHT22;4563;54.756;9.400;2023-09-30T13:29:45;23.40;60.00
9057;DHT22;4563;54.756;9.400;2023-09-30T13:32:12;23.40;60.00
9057;DHT22;4563;54.756;9.400;2023-09-30T13:34:39;23.40;59.80
9057;DHT22;4563;54.756;9.400;2023-09-30T13:37:06;23.40;59.80
9057;DHT22;4563;54.756;9.400;2023-09-30T13:39:33;23.40;59.80
9057;DHT22;4563;54.756;9.400;2023-09-30T13:42:00;23.30;60.10
9057;DHT22;4563;54.756;9.400;2023-09-30T13:44:27;23.30;60.40
9057;DHT22;4563;54.756;9.400;2023-09-30T13:46:55;23.30;60.20
9057;DHT22;4563;54.756;9.400;2023-09-30T13:49:22;23.30;60.10
9057;DHT22;4563;54.756;9.400;2023-09-30T13:51:51;23.30;59.90
9057;DHT22;4563;54.756;9.400;2023-09-30T13:54:17;23.30;60.10
9057;DHT22;4563;54.756;9.400;2023-09-30T13:56:44;23.30;59.60
9057;DHT22;4563;54.756;9.400;2023-09-30T13:59:11;23.20;59.60
9057;DHT22;4563;54.756;9.400;2023-09-30T14:01:38;23.20;59.50
9057;DHT22;4563;54.756;9.400;2023-09-30T14:04:08;23.10;59.30
9057;DHT22;4563;54.756;9.400;2023-09-30T14:06:35;23.10;59.50
9057;DHT22;4563;54.756;9.400;2023-09-30T14:09:02;23.10;59.40
9057;DHT22;4563;54.756;9.400;2023-09-30T14:11:29;23.00;59.30
9057;DHT22;4563;54.756;9.400;2023-09-30T14:13:57;23.00;59.10
9057;DHT22;4563;54.756;9.400;2023-09-30T14:16:24;22.90;59.10
9057;DHT22;4563;54.756;9.400;2023-09-30T14:18:52;22.90;59.30
9057;DHT22;4563;54.756;9.400;2023-09-30T14:21:20;22.90;59.30
9057;DHT22;4563;54.756;9.400;2023-09-30T14:23:47;22.80;59.10
9057;DHT22;4563;54.756;9.400;2023-09-30T14:26:14;22.80;59.10
9057;DHT22;4563;54.756;9.400;2023-09-30T14:28:41;22.70;59.10
9057;DHT22;4563;54.756;9.400;2023-09-30T14:31:08;22.60;59.20
9057;DHT22;4563;54.756;9.400;2023-09-30T14:33:35;22.50;59.10
9057;DHT22;4563;54.756;9.400;2023-09-30T14:36:02;22.50;59.30
9057;DHT22;4563;54.756;9.400;2023-09-30T14:38:33;22.40;59.40
9057;DHT22;4563;54.756;9.400;2023-09-30T14:40:59;22.40;59.70
9057;DHT22;4563;54.756;9.400;2023-09-30T14:43:26;22.30;59.70
9057;DHT22;4563;54.756;9.400;2023-09-30T14:45:53;22.30;60.00
9057;DHT22;4563;54.756;9.400;2023-09-30T14:48:20;22.20;60.00
9057;DHT22;4563;54.756;9.400;2023-09-30T14:50:49;22.10;60.10
9057;DHT22;4563;54.756;9.400;2023-09-30T14:53:16;22.10;60.20
9057;DHT22;4563;54.756;9.400;2023-09-30T14:55:46;22.00;60.00
9057;DHT22;4563;54.756;9.400;2023-09-30T14:58:13;22.00;60.10
9057;DHT22;4563;54.756;9.400;2023-09-30T15:00:40;21.90;60.10
9057;DHT22;4563;54.756;9.400;2023-09-30T15:03:08;21.80;60.20
9057;DHT22;4563;54.756;9.400;2023-09-30T15:05:36;21.80;60.40
9057;DHT22;4563;54.756;9.400;2023-09-30T15:08:03;21.70;60.30
9057;DHT22;4563;54.756;9.400;2023-09-30T15:10:34;21.70;60.50
9057;DHT22;4563;54.756;9.400;2023-09-30T15:13:03;21.60;60.80
9057;DHT22;4563;54.756;9.400;2023-09-30T15:15:31;21.50;60.50
9057;DHT22;4563;54.756;9.400;2023-09-30T15:17:58;21.40;60.50
9057;DHT22;4563;54.756;9.400;2023-09-30T15:20:26;21.40;60.60
9057;DHT22;4563;54.756;9.400;2023-09-30T15:22:53;21.30;60.80
9057;DHT22;4563;54.756;9.400;2023-09-30T15:25:19;21.30;61.20
9057;DHT22;4563;54.756;9.400;2023-09-30T15:27:46;21.20;61.20
9057;DHT22;4563;54.756;9.400;2023-09-30T15:30:15;21.10;61.20
9057;DHT22;4563;54.756;9.400;2023-09-30T15:32:43;21.10;61.50
9057;DHT22;4563;54.756;9.400;2023-09-30T15:35:10;21.00;61.40
9057;DHT22;4563;54.756;9.400;2023-09-30T15:37:37;20.90;61.50
9057;DHT22;4563;54.756;9.400;2023-09-30T15:40:05;20.90;61.70
9057;DHT22;4563;54.756;9.400;2023-09-30T15:42:33;20.90;61.90
9057;DHT22;4563;54.756;9.400;2023-09-30T15:45:00;20.80;62.00
9057;DHT22;4563;54.756;9.400;2023-09-30T15:47:29;20.80;62.10
9057;DHT22;4563;54.756;9.400;2023-09-30T15:49:56;20.70;62.30
9057;DHT22;4563;54.756;9.400;2023-09-30T15:52:22;20.60;62.30
9057;DHT22;4563;54.756;9.400;2023-09-30T15:54:49;20.60;62.40
9057;DHT22;4563;54.756;9.400;2023-09-30T15:57:18;20.50;62.40
9057;DHT22;4563;54.756;9.400;2023-09-30T15:59:44;20.50;62.60
9057;DHT22;4563;54.756;9.400;2023-09-30T16:02:11;20.50;62.80
9057;DHT22;4563;54.756;9.400;2023-09-30T16:04:40;20.40;62.80
9057;DHT22;4563;54.756;9.400;2023-09-30T16:07:07;20.40;63.00